sensor_id;sensor_type;location;lat;lon;timestamp;P1;durP1;ratioP1;P2;durP2;ratioP2
55674;SDS011;41562;44.330;23.802;2023-07-02T00:02:21;3.47;;;2.47;;
55674;SDS011;41562;44.330;23.802;2023-07-02T00:04:48;2.55;;;1.65;;
55674;SDS011;41562;44.330;23.802;2023-07-02T00:07:16;2.47;;;1.92;;
55674;SDS011;41562;44.330;23.802;2023-07-02T00:13:31;5.35;;;1.65;;
55674;SDS011;41562;44.330;23.802;2023-07-02T00:19:46;3.85;;;2.60;;
55674;SDS011;41562;44.330;23.802;2023-07-02T00:22:14;6.03;;;2.45;;
55674;SDS011;41562;44.330;23.802;2023-07-02T00:24:41;4.85;;;2.10;;
55674;SDS011;41562;44.330;23.802;2023-07-02T00:30:40;3.95;;;1.90;;
55674;SDS011;41562;44.330;23.802;2023-07-02T00:33:07;4.75;;;2.28;;
55674;SDS011;41562;44.330;23.802;2023-07-02T00:35:35;2.33;;;1.70;;
55674;SDS011;41562;44.330;23.802;2023-07-02T00:38:03;6.72;;;2.13;;
55674;SDS011;41562;44.330;23.802;2023-07-02T00:44:20;2.47;;;1.73;;
55674;SDS011;41562;44.330;23.802;2023-07-02T00:50:50;6.05;;;2.03;;
55674;SDS011;41562;44.330;23.802;2023-07-02T00:53:19;4.32;;;1.83;;
55674;SDS011;41562;44.330;23.802;2023-07-02T00:55:47;3.00;;;1.63;;
55674;SDS011;41562;44.330;23.802;2023-07-02T00:58:14;5.10;;;2.17;;
55674;SDS011;41562;44.330;23.802;2023-07-02T01:00:42;4.07;;;1.60;;
55674;SDS011;41562;44.330;23.802;2023-07-02T01:03:10;3.83;;;1.42;;
55674;SDS011;41562;44.330;23.802;2023-07-02T01:05:52;2.10;;;1.52;;
55674;SDS011;41562;44.330;23.802;2023-07-02T01:08:19;4.78;;;2.58;;
55674;SDS011;41562;44.330;23.802;2023-07-02T01:10:47;6.03;;;1.98;;
55674;SDS011;41562;44.330;23.802;2023-07-02T01:13:15;3.08;;;1.80;;
55674;SDS011;41562;44.330;23.802;2023-07-02T01:18:13;2.92;;;1.48;;
55674;SDS011;41562;44.330;23.802;2023-07-02T01:20:42;5.00;;;2.15;;
55674;SDS011;41562;44.330;23.802;2023-07-02T01:23:10;3.22;;;1.40;;
55674;SDS011;41562;44.330;23.802;2023-07-02T01:29:24;4.60;;;1.98;;
55674;SDS011;41562;44.330;23.802;2023-07-02T01:35:38;2.78;;;2.05;;
55674;SDS011;41562;44.330;23.802;2023-07-02T01:45:41;5.45;;;2.35;;
55674;SDS011;41562;44.330;23.802;2023-07-02T01:48:08;5.05;;;1.80;;
55674;SDS011;41562;44.330;23.802;2023-07-02T01:50:37;3.95;;;2.17;;
55674;SDS011;41562;44.330;23.802;2023-07-02T01:53:04;3.67;;;1.90;;
55674;SDS011;41562;44.330;23.802;2023-07-02T01:59:24;2.93;;;1.80;;
55674;SDS011;41562;44.330;23.802;2023-07-02T02:05:33;3.92;;;1.92;;
55674;SDS011;41562;44.330;23.802;2023-07-02T02:08:00;3.10;;;1.75;;
55674;SDS011;41562;44.330;23.802;2023-07-02T02:10:27;6.13;;;2.15;;
55674;SDS011;41562;44.330;23.802;2023-07-02T02:12:57;6.45;;;2.10;;
55674;SDS011;41562;44.330;23.802;2023-07-02T02:19:07;3.87;;;2.40;;
55674;SDS011;41562;44.330;23.802;2023-07-02T02:21:37;3.00;;;2.27;;
55674;SDS011;41562;44.330;23.802;2023-07-02T02:24:05;3.20;;;2.15;;
55674;SDS011;41562;44.330;23.802;2023-07-02T02:26:33;3.20;;;1.70;;
55674;SDS011;41562;44.330;23.802;2023-07-02T02:39:32;3.97;;;1.83;;
55674;SDS011;41562;44.330;23.802;2023-07-02T02:41:59;5.68;;;2.50;;
55674;SDS011;41562;44.330;23.802;2023-07-02T02:44:27;6.00;;;2.22;;
55674;SDS011;41562;44.330;23.802;2023-07-02T02:50:41;4.38;;;2.08;;
55674;SDS011;41562;44.330;23.802;2023-07-02T02:53:09;3.95;;;2.58;;
55674;SDS011;41562;44.330;23.802;2023-07-02T02:55:37;3.80;;;1.80;;
55674;SDS011;41562;44.330;23.802;2023-07-02T02:58:05;2.70;;;1.98;;
55674;SDS011;41562;44.330;23.802;2023-07-02T03:01:03;2.75;;;1.90;;
55674;SDS011;41562;44.330;23.802;2023-07-02T03:03:31;3.38;;;1.75;;
55674;SDS011;41562;44.330;23.802;2023-07-02T03:06:01;5.18;;;1.45;;
55674;SDS011;41562;44.330;23.802;2023-07-02T03:08:29;6.68;;;2.25;;
55674;SDS011;41562;44.330;23.802;2023-07-02T03:10:56;3.13;;;2.00;;
55674;SDS011;41562;44.330;23.802;2023-07-02T03:13:27;3.22;;;2.10;;
55674;SDS011;41562;44.330;23.802;2023-07-02T03:19:41;4.18;;;2.17;;
55674;SDS011;41562;44.330;23.802;2023-07-02T03:22:08;3.25;;;2.33;;
55674;SDS011;41562;44.330;23.802;2023-07-02T03:24:35;5.45;;;2.58;;
55674;SDS011;41562;44.330;23.802;2023-07-02T03:27:03;5.05;;;1.75;;
55674;SDS011;41562;44.330;23.802;2023-07-02T03:29:31;4.38;;;2.10;;
55674;SDS011;41562;44.330;23.802;2023-07-02T03:32:01;2.88;;;1.88;;
55674;SDS011;41562;44.330;23.802;2023-07-02T03:34:29;3.28;;;2.22;;
55674;SDS011;41562;44.330;23.802;2023-07-02T03:36:57;4.00;;;2.22;;
55674;SDS011;41562;44.330;23.802;2023-07-02T03:39:37;2.35;;;2.13;;
55674;SDS011;41562;44.330;23.802;2023-07-02T03:50:22;3.05;;;2.42;;
55674;SDS011;41562;44.330;23.802;2023-07-02T03:53:14;3.25;;;2.17;;
55674;SDS011;41562;44.330;23.802;2023-07-02T03:55:55;2.78;;;1.70;;
55674;SDS011;41562;44.330;23.802;2023-07-02T03:58:36;3.05;;;1.58;;
55674;SDS011;41562;44.330;23.802;2023-07-02T04:01:24;4.70;;;2.40;;
55674;SDS011;41562;44.330;23.802;2023-07-02T04:03:52;2.17;;;1.20;;
55674;SDS011;41562;44.330;23.802;2023-07-02T04:06:20;4.65;;;2.00;;
55674;SDS011;41562;44.330;23.802;2023-07-02T04:08:48;2.83;;;1.52;;
55674;SDS011;41562;44.330;23.802;2023-07-02T04:11:15;2.67;;;1.88;;
55674;SDS011;41562;44.330;23.802;2023-07-02T04:13:45;5.53;;;1.80;;
55674;SDS011;41562;44.330;23.802;2023-07-02T04:16:13;4.88;;;2.08;;
55674;SDS011;41562;44.330;23.802;2023-07-02T04:18:43;3.42;;;2.10;;
55674;SDS011;41562;44.330;23.802;2023-07-02T04:21:10;6.95;;;2.05;;
55674;SDS011;41562;44.330;23.802;2023-07-02T04:23:38;2.85;;;2.22;;
55674;SDS011;41562;44.330;23.802;2023-07-02T04:26:06;2.90;;;1.88;;
55674;SDS011;41562;44.330;23.802;2023-07-02T04:28:53;3.58;;;1.65;;
55674;SDS011;41562;44.330;23.802;2023-07-02T04:31:21;3.55;;;1.77;;
55674;SDS011;41562;44.330;23.802;2023-07-02T04:33:49;4.88;;;1.35;;
55674;SDS011;41562;44.330;23.802;2023-07-02T04:36:16;4.30;;;2.08;;
55674;SDS011;41562;44.330;23.802;2023-07-02T04:38:45;2.58;;;1.33;;
55674;SDS011;41562;44.330;23.802;2023-07-02T04:41:12;4.40;;;1.67;;
55674;SDS011;41562;44.330;23.802;2023-07-02T04:43:39;3.33;;;1.88;;
55674;SDS011;41562;44.330;23.802;2023-07-02T04:46:08;2.75;;;1.83;;
55674;SDS011;41562;44.330;23.802;2023-07-02T04:48:36;3.42;;;1.90;;
55674;SDS011;41562;44.330;23.802;2023-07-02T04:51:03;3.45;;;2.13;;
55674;SDS011;41562;44.330;23.802;2023-07-02T04:53:31;5.30;;;2.25;;
55674;SDS011;41562;44.330;23.802;2023-07-02T04:55:59;4.32;;;1.83;;
55674;SDS011;41562;44.330;23.802;2023-07-02T04:58:27;4.80;;;2.15;;
55674;SDS011;41562;44.330;23.802;2023-07-02T05:00:57;2.35;;;1.73;;
55674;SDS011;41562;44.330;23.802;2023-07-02T05:03:26;2.25;;;1.83;;
55674;SDS011;41562;44.330;23.802;2023-07-02T05:05:55;2.50;;;1.08;;
55674;SDS011;41562;44.330;23.802;2023-07-02T05:08:26;6.40;;;1.60;;
55674;SDS011;41562;44.330;23.802;2023-07-02T05:10:54;7.90;;;1.83;;
55674;SDS011;41562;44.330;23.802;2023-07-02T05:13:23;2.70;;;1.38;;
55674;SDS011;41562;44.330;23.802;2023-07-02T05:15:55;4.10;;;1.95;;
55674;SDS011;41562;44.330;23.802;2023-07-02T05:18:23;1.55;;;1.20;;
55674;SDS011;41562;44.330;23.802;2023-07-02T05:20:53;3.85;;;1.60;;
55674;SDS011;41562;44.330;23.802;2023-07-02T05:23:21;3.70;;;1.55;;
55674;SDS011;41562;44.330;23.802;2023-07-02T05:25:50;2.45;;;0.98;;
55674;SDS011;41562;44.330;23.802;2023-07-02T05:28:18;1.85;;;1.33;;
55674;SDS011;41562;44.330;23.802;2023-07-02T05:30:48;2.90;;;1.27;;
55674;SDS011;41562;44.330;23.802;2023-07-02T05:33:17;3.33;;;1.80;;
55674;SDS011;41562;44.330;23.802;2023-07-02T05:35:45;2.03;;;1.52;;
55674;SDS011;41562;44.330;23.802;2023-07-02T05:38:14;3.25;;;1.40;;
55674;SDS011;41562;44.330;23.802;2023-07-02T05:40:41;2.72;;;1.50;;
55674;SDS011;41562;44.330;23.802;2023-07-02T05:43:26;4.05;;;1.23;;
55674;SDS011;41562;44.330;23.802;2023-07-02T05:45:54;1.75;;;0.93;;
55674;SDS011;41562;44.330;23.802;2023-07-02T05:48:25;3.40;;;1.45;;
55674;SDS011;41562;44.330;23.802;2023-07-02T05:50:53;2.67;;;1.67;;
55674;SDS011;41562;44.330;23.802;2023-07-02T05:53:24;3.88;;;1.83;;
55674;SDS011;41562;44.330;23.802;2023-07-02T05:55:51;5.15;;;1.80;;
55674;SDS011;41562;44.330;23.802;2023-07-02T05:58:19;2.85;;;1.60;;
55674;SDS011;41562;44.330;23.802;2023-07-02T06:00:57;2.28;;;1.27;;
55674;SDS011;41562;44.330;23.802;2023-07-02T06:03:25;1.58;;;1.20;;
55674;SDS011;41562;44.330;23.802;2023-07-02T06:05:52;2.35;;;1.27;;
55674;SDS011;41562;44.330;23.802;2023-07-02T06:08:20;2.30;;;1.15;;
55674;SDS011;41562;44.330;23.802;2023-07-02T06:10:47;2.38;;;1.85;;
55674;SDS011;41562;44.330;23.802;2023-07-02T06:13:16;3.33;;;1.73;;
55674;SDS011;41562;44.330;23.802;2023-07-02T06:15:44;2.17;;;1.50;;
55674;SDS011;41562;44.330;23.802;2023-07-02T06:18:13;2.53;;;1.52;;
55674;SDS011;41562;44.330;23.802;2023-07-02T06:20:41;3.45;;;1.20;;
55674;SDS011;41562;44.330;23.802;2023-07-02T06:23:09;2.58;;;1.27;;
55674;SDS011;41562;44.330;23.802;2023-07-02T06:25:36;3.13;;;1.60;;
55674;SDS011;41562;44.330;23.802;2023-07-02T06:28:04;2.10;;;1.27;;
55674;SDS011;41562;44.330;23.802;2023-07-02T06:30:32;1.63;;;1.02;;
55674;SDS011;41562;44.330;23.802;2023-07-02T06:32:59;4.57;;;1.50;;
55674;SDS011;41562;44.330;23.802;2023-07-02T06:35:31;4.20;;;1.60;;
55674;SDS011;41562;44.330;23.802;2023-07-02T06:40:28;3.45;;;1.17;;
55674;SDS011;41562;44.330;23.802;2023-07-02T06:42:56;2.70;;;1.73;;
55674;SDS011;41562;44.330;23.802;2023-07-02T06:45:23;3.50;;;1.85;;
55674;SDS011;41562;44.330;23.802;2023-07-02T06:47:51;5.10;;;2.10;;
55674;SDS011;41562;44.330;23.802;2023-07-02T06:50:22;4.68;;;1.73;;
55674;SDS011;41562;44.330;23.802;2023-07-02T06:52:50;4.05;;;1.95;;
55674;SDS011;41562;44.330;23.802;2023-07-02T06:55:18;3.58;;;1.58;;
55674;SDS011;41562;44.330;23.802;2023-07-02T06:57:46;4.05;;;1.30;;
55674;SDS011;41562;44.330;23.802;2023-07-02T07:00:14;7.15;;;1.48;;
55674;SDS011;41562;44.330;23.802;2023-07-02T07:02:41;5.05;;;1.60;;
55674;SDS011;41562;44.330;23.802;2023-07-02T07:05:09;3.53;;;1.77;;
55674;SDS011;41562;44.330;23.802;2023-07-02T07:07:37;4.25;;;1.45;;
55674;SDS011;41562;44.330;23.802;2023-07-02T07:10:05;3.67;;;1.45;;
55674;SDS011;41562;44.330;23.802;2023-07-02T07:12:34;3.55;;;2.13;;
55674;SDS011;41562;44.330;23.802;2023-07-02T07:15:01;6.85;;;1.20;;
55674;SDS011;41562;44.330;23.802;2023-07-02T07:17:29;4.30;;;1.90;;
55674;SDS011;41562;44.330;23.802;2023-07-02T07:19:57;4.97;;;1.92;;
55674;SDS011;41562;44.330;23.802;2023-07-02T07:22:24;2.00;;;1.30;;
55674;SDS011;41562;44.330;23.802;2023-07-02T07:24:52;3.20;;;2.10;;
55674;SDS011;41562;44.330;23.802;2023-07-02T07:27:19;10.35;;;3.67;;
55674;SDS011;41562;44.330;23.802;2023-07-02T07:29:47;3.85;;;2.38;;
55674;SDS011;41562;44.330;23.802;2023-07-02T07:32:15;4.90;;;2.35;;
55674;SDS011;41562;44.330;23.802;2023-07-02T07:34:42;3.30;;;1.40;;
55674;SDS011;41562;44.330;23.802;2023-07-02T07:37:10;3.10;;;2.30;;
55674;SDS011;41562;44.330;23.802;2023-07-02T07:39:43;6.40;;;1.95;;
55674;SDS011;41562;44.330;23.802;2023-07-02T07:42:11;3.95;;;2.00;;
55674;SDS011;41562;44.330;23.802;2023-07-02T07:44:41;3.08;;;1.50;;
55674;SDS011;41562;44.330;23.802;2023-07-02T07:47:08;3.78;;;1.75;;
55674;SDS011;41562;44.330;23.802;2023-07-02T07:49:36;2.55;;;1.95;;
55674;SDS011;41562;44.330;23.802;2023-07-02T07:52:04;7.07;;;2.45;;
55674;SDS011;41562;44.330;23.802;2023-07-02T07:54:33;3.60;;;2.10;;
55674;SDS011;41562;44.330;23.802;2023-07-02T07:57:01;3.00;;;1.60;;
55674;SDS011;41562;44.330;23.802;2023-07-02T07:59:29;2.88;;;2.05;;
55674;SDS011;41562;44.330;23.802;2023-07-02T08:01:57;5.07;;;2.20;;
55674;SDS011;41562;44.330;23.802;2023-07-02T08:04:24;5.00;;;2.25;;
55674;SDS011;41562;44.330;23.802;2023-07-02T08:06:52;5.25;;;2.30;;
55674;SDS011;41562;44.330;23.802;2023-07-02T08:09:20;5.50;;;1.88;;
55674;SDS011;41562;44.330;23.802;2023-07-02T08:11:48;3.63;;;1.75;;
55674;SDS011;41562;44.330;23.802;2023-07-02T08:14:17;4.85;;;1.67;;
55674;SDS011;41562;44.330;23.802;2023-07-02T08:16:48;4.18;;;2.25;;
55674;SDS011;41562;44.330;23.802;2023-07-02T08:19:16;3.63;;;1.70;;
55674;SDS011;41562;44.330;23.802;2023-07-02T08:21:43;4.75;;;2.53;;
55674;SDS011;41562;44.330;23.802;2023-07-02T08:24:13;6.60;;;2.15;;
55674;SDS011;41562;44.330;23.802;2023-07-02T08:26:41;4.97;;;2.10;;
55674;SDS011;41562;44.330;23.802;2023-07-02T08:29:08;5.45;;;2.05;;
55674;SDS011;41562;44.330;23.802;2023-07-02T08:31:36;5.82;;;2.13;;
55674;SDS011;41562;44.330;23.802;2023-07-02T08:34:04;6.60;;;3.30;;
55674;SDS011;41562;44.330;23.802;2023-07-02T08:36:31;3.15;;;1.80;;
55674;SDS011;41562;44.330;23.802;2023-07-02T08:39:00;6.07;;;2.00;;
55674;SDS011;41562;44.330;23.802;2023-07-02T08:41:30;2.97;;;1.75;;
55674;SDS011;41562;44.330;23.802;2023-07-02T08:43:57;4.13;;;2.45;;
55674;SDS011;41562;44.330;23.802;2023-07-02T08:46:26;3.63;;;2.15;;
55674;SDS011;41562;44.330;23.802;2023-07-02T08:48:55;2.90;;;2.20;;
55674;SDS011;41562;44.330;23.802;2023-07-02T08:51:23;4.85;;;2.10;;
55674;SDS011;41562;44.330;23.802;2023-07-02T08:53:50;4.65;;;2.33;;
55674;SDS011;41562;44.330;23.802;2023-07-02T08:56:18;4.22;;;2.22;;
55674;SDS011;41562;44.330;23.802;2023-07-02T09:01:16;4.55;;;2.13;;
55674;SDS011;41562;44.330;23.802;2023-07-02T09:03:44;3.47;;;2.05;;
55674;SDS011;41562;44.330;23.802;2023-07-02T09:06:13;4.00;;;2.10;;
55674;SDS011;41562;44.330;23.802;2023-07-02T09:08:44;5.65;;;2.70;;
55674;SDS011;41562;44.330;23.802;2023-07-02T09:11:12;3.00;;;1.92;;
55674;SDS011;41562;44.330;23.802;2023-07-02T09:13:51;4.93;;;2.43;;
55674;SDS011;41562;44.330;23.802;2023-07-02T09:24:22;4.55;;;2.60;;
55674;SDS011;41562;44.330;23.802;2023-07-02T09:26:51;4.30;;;2.00;;
55674;SDS011;41562;44.330;23.802;2023-07-02T09:29:23;4.68;;;2.30;;
55674;SDS011;41562;44.330;23.802;2023-07-02T09:32:01;3.17;;;2.30;;
55674;SDS011;41562;44.330;23.802;2023-07-02T09:34:37;4.70;;;2.28;;
55674;SDS011;41562;44.330;23.802;2023-07-02T09:37:06;2.58;;;1.65;;
55674;SDS011;41562;44.330;23.802;2023-07-02T09:39:35;2.00;;;1.30;;
55674;SDS011;41562;44.330;23.802;2023-07-02T09:42:06;2.63;;;1.50;;
55674;SDS011;41562;44.330;23.802;2023-07-02T09:44:35;4.57;;;2.22;;
55674;SDS011;41562;44.330;23.802;2023-07-02T09:47:07;3.53;;;2.00;;
55674;SDS011;41562;44.330;23.802;2023-07-02T09:49:37;5.20;;;2.20;;
55674;SDS011;41562;44.330;23.802;2023-07-02T09:52:10;4.45;;;2.13;;
55674;SDS011;41562;44.330;23.802;2023-07-02T09:54:38;1.85;;;1.20;;
55674;SDS011;41562;44.330;23.802;2023-07-02T09:57:05;2.97;;;1.73;;
55674;SDS011;41562;44.330;23.802;2023-07-02T09:59:33;4.00;;;2.28;;
55674;SDS011;41562;44.330;23.802;2023-07-02T10:02:01;3.95;;;2.15;;
55674;SDS011;41562;44.330;23.802;2023-07-02T10:04:38;2.80;;;1.25;;
55674;SDS011;41562;44.330;23.802;2023-07-02T10:07:07;2.55;;;1.48;;
55674;SDS011;41562;44.330;23.802;2023-07-02T10:14:57;3.38;;;1.50;;
55674;SDS011;41562;44.330;23.802;2023-07-02T10:17:33;2.97;;;1.48;;
55674;SDS011;41562;44.330;23.802;2023-07-02T10:20:03;4.72;;;1.63;;
55674;SDS011;41562;44.330;23.802;2023-07-02T10:22:45;4.68;;;2.42;;
55674;SDS011;41562;44.330;23.802;2023-07-02T10:25:25;2.80;;;1.83;;
55674;SDS011;41562;44.330;23.802;2023-07-02T10:27:54;4.63;;;2.05;;
55674;SDS011;41562;44.330;23.802;2023-07-02T10:30:35;2.78;;;1.92;;
55674;SDS011;41562;44.330;23.802;2023-07-02T10:33:11;2.85;;;1.80;;
55674;SDS011;41562;44.330;23.802;2023-07-02T10:35:41;6.80;;;2.47;;
55674;SDS011;41562;44.330;23.802;2023-07-02T10:38:25;5.18;;;2.22;;
55674;SDS011;41562;44.330;23.802;2023-07-02T10:40:54;3.13;;;1.83;;
55674;SDS011;41562;44.330;23.802;2023-07-02T10:43:29;2.15;;;1.48;;
55674;SDS011;41562;44.330;23.802;2023-07-02T10:45:58;3.35;;;1.77;;
55674;SDS011;41562;44.330;23.802;2023-07-02T10:48:28;5.88;;;1.55;;
55674;SDS011;41562;44.330;23.802;2023-07-02T10:50:56;4.60;;;2.20;;
55674;SDS011;41562;44.330;23.802;2023-07-02T10:53:24;3.63;;;1.85;;
55674;SDS011;41562;44.330;23.802;2023-07-02T10:55:56;4.05;;;1.83;;
55674;SDS011;41562;44.330;23.802;2023-07-02T10:58:25;4.60;;;1.85;;
55674;SDS011;41562;44.330;23.802;2023-07-02T11:00:53;3.08;;;1.88;;
55674;SDS011;41562;44.330;23.802;2023-07-02T11:03:22;2.65;;;1.73;;
55674;SDS011;41562;44.330;23.802;2023-07-02T11:05:51;5.55;;;2.50;;
55674;SDS011;41562;44.330;23.802;2023-07-02T11:08:20;3.63;;;1.98;;
55674;SDS011;41562;44.330;23.802;2023-07-02T11:10:47;3.03;;;1.88;;
55674;SDS011;41562;44.330;23.802;2023-07-02T11:13:16;4.13;;;1.73;;
55674;SDS011;41562;44.330;23.802;2023-07-02T11:15:50;3.42;;;1.92;;
55674;SDS011;41562;44.330;23.802;2023-07-02T11:18:18;4.35;;;1.70;;
55674;SDS011;41562;44.330;23.802;2023-07-02T11:20:47;4.40;;;1.73;;
55674;SDS011;41562;44.330;23.802;2023-07-02T11:23:22;2.40;;;1.40;;
55674;SDS011;41562;44.330;23.802;2023-07-02T11:25:57;3.45;;;1.52;;
55674;SDS011;41562;44.330;23.802;2023-07-02T11:28:26;6.00;;;1.80;;
55674;SDS011;41562;44.330;23.802;2023-07-02T11:30:55;4.60;;;2.05;;
55674;SDS011;41562;44.330;23.802;2023-07-02T11:33:32;2.92;;;1.75;;
55674;SDS011;41562;44.330;23.802;2023-07-02T11:36:03;3.10;;;1.77;;
55674;SDS011;41562;44.330;23.802;2023-07-02T11:38:35;5.20;;;2.45;;
55674;SDS011;41562;44.330;23.802;2023-07-02T11:41:04;5.10;;;1.85;;
55674;SDS011;41562;44.330;23.802;2023-07-02T11:43:32;5.00;;;2.00;;
55674;SDS011;41562;44.330;23.802;2023-07-02T11:46:00;2.33;;;1.67;;
55674;SDS011;41562;44.330;23.802;2023-07-02T11:48:27;4.72;;;2.28;;
55674;SDS011;41562;44.330;23.802;2023-07-02T11:50:55;3.70;;;1.75;;
55674;SDS011;41562;44.330;23.802;2023-07-02T11:53:22;4.07;;;1.98;;
55674;SDS011;41562;44.330;23.802;2023-07-02T11:55:50;2.63;;;1.70;;
55674;SDS011;41562;44.330;23.802;2023-07-02T11:58:18;4.47;;;1.48;;
55674;SDS011;41562;44.330;23.802;2023-07-02T12:00:46;4.13;;;2.13;;
55674;SDS011;41562;44.330;23.802;2023-07-02T12:03:14;5.47;;;2.38;;
55674;SDS011;41562;44.330;23.802;2023-07-02T12:05:42;4.03;;;2.00;;
55674;SDS011;41562;44.330;23.802;2023-07-02T12:08:09;3.67;;;1.55;;
55674;SDS011;41562;44.330;23.802;2023-07-02T12:10:37;2.63;;;1.88;;
55674;SDS011;41562;44.330;23.802;2023-07-02T12:13:05;3.17;;;2.13;;
55674;SDS011;41562;44.330;23.802;2023-07-02T12:15:32;3.13;;;1.90;;
55674;SDS011;41562;44.330;23.802;2023-07-02T12:18:00;3.17;;;1.80;;
55674;SDS011;41562;44.330;23.802;2023-07-02T12:20:27;3.30;;;1.73;;
55674;SDS011;41562;44.330;23.802;2023-07-02T12:22:55;4.10;;;2.55;;
55674;SDS011;41562;44.330;23.802;2023-07-02T12:25:27;3.60;;;2.03;;
55674;SDS011;41562;44.330;23.802;2023-07-02T12:27:54;2.70;;;1.73;;
55674;SDS011;41562;44.330;23.802;2023-07-02T12:30:22;5.88;;;2.33;;
55674;SDS011;41562;44.330;23.802;2023-07-02T12:32:50;3.05;;;1.65;;
55674;SDS011;41562;44.330;23.802;2023-07-02T12:35:17;3.05;;;1.90;;
55674;SDS011;41562;44.330;23.802;2023-07-02T12:37:46;3.47;;;2.22;;
55674;SDS011;41562;44.330;23.802;2023-07-02T12:40:14;6.28;;;1.77;;
55674;SDS011;41562;44.330;23.802;2023-07-02T12:42:46;3.20;;;2.30;;
55674;SDS011;41562;44.330;23.802;2023-07-02T12:45:14;3.92;;;1.98;;
55674;SDS011;41562;44.330;23.802;2023-07-02T12:47:44;2.80;;;1.60;;
55674;SDS011;41562;44.330;23.802;2023-07-02T12:50:11;5.10;;;2.25;;
55674;SDS011;41562;44.330;23.802;2023-07-02T12:52:42;6.90;;;1.80;;
55674;SDS011;41562;44.330;23.802;2023-07-02T12:55:14;3.72;;;1.85;;
55674;SDS011;41562;44.330;23.802;2023-07-02T12:57:45;3.30;;;1.88;;
55674;SDS011;41562;44.330;23.802;2023-07-02T13:00:12;3.55;;;1.70;;
55674;SDS011;41562;44.330;23.802;2023-07-02T13:02:41;3.38;;;1.75;;
55674;SDS011;41562;44.330;23.802;2023-07-02T13:05:28;3.42;;;2.08;;
55674;SDS011;41562;44.330;23.802;2023-07-02T13:08:18;3.10;;;1.80;;
55674;SDS011;41562;44.330;23.802;2023-07-02T13:10:46;3.38;;;1.80;;
55674;SDS011;41562;44.330;23.802;2023-07-02T13:13:15;4.30;;;1.65;;
55674;SDS011;41562;44.330;23.802;2023-07-02T13:15:50;6.13;;;2.13;;
55674;SDS011;41562;44.330;23.802;2023-07-02T13:18:18;3.20;;;1.88;;
55674;SDS011;41562;44.330;23.802;2023-07-02T13:20:48;2.53;;;1.80;;
55674;SDS011;41562;44.330;23.802;2023-07-02T13:23:17;3.58;;;2.35;;
55674;SDS011;41562;44.330;23.802;2023-07-02T13:25:45;2.55;;;1.52;;
55674;SDS011;41562;44.330;23.802;2023-07-02T13:28:13;2.33;;;2.05;;
55674;SDS011;41562;44.330;23.802;2023-07-02T13:30:40;3.10;;;1.40;;
55674;SDS011;41562;44.330;23.802;2023-07-02T13:33:08;6.72;;;1.80;;
55674;SDS011;41562;44.330;23.802;2023-07-02T13:35:36;4.88;;;2.17;;
55674;SDS011;41562;44.330;23.802;2023-07-02T13:38:03;2.95;;;2.15;;
55674;SDS011;41562;44.330;23.802;2023-07-02T13:40:31;3.22;;;1.92;;
55674;SDS011;41562;44.330;23.802;2023-07-02T13:43:00;3.58;;;2.10;;
55674;SDS011;41562;44.330;23.802;2023-07-02T13:45:32;4.07;;;2.00;;
55674;SDS011;41562;44.330;23.802;2023-07-02T13:47:59;6.40;;;2.15;;
55674;SDS011;41562;44.330;23.802;2023-07-02T13:50:27;3.20;;;2.22;;
55674;SDS011;41562;44.330;23.802;2023-07-02T13:53:04;3.72;;;2.13;;
55674;SDS011;41562;44.330;23.802;2023-07-02T13:55:36;2.92;;;1.77;;
55674;SDS011;41562;44.330;23.802;2023-07-02T13:58:05;3.13;;;1.95;;
55674;SDS011;41562;44.330;23.802;2023-07-02T14:00:33;4.35;;;1.85;;
55674;SDS011;41562;44.330;23.802;2023-07-02T14:03:01;5.15;;;2.17;;
55674;SDS011;41562;44.330;23.802;2023-07-02T14:05:29;4.55;;;2.50;;
55674;SDS011;41562;44.330;23.802;2023-07-02T14:07:57;4.05;;;1.90;;
55674;SDS011;41562;44.330;23.802;2023-07-02T14:10:25;5.55;;;2.65;;
55674;SDS011;41562;44.330;23.802;2023-07-02T14:12:54;3.20;;;2.53;;
55674;SDS011;41562;44.330;23.802;2023-07-02T14:15:31;3.25;;;2.13;;
55674;SDS011;41562;44.330;23.802;2023-07-02T14:17:59;5.75;;;2.47;;
55674;SDS011;41562;44.330;23.802;2023-07-02T14:20:27;4.60;;;2.50;;
55674;SDS011;41562;44.330;23.802;2023-07-02T14:22:54;5.05;;;2.72;;
55674;SDS011;41562;44.330;23.802;2023-07-02T14:25:22;6.45;;;2.50;;
55674;SDS011;41562;44.330;23.802;2023-07-02T14:28:09;5.95;;;2.95;;
55674;SDS011;41562;44.330;23.802;2023-07-02T14:30:37;5.05;;;2.78;;
55674;SDS011;41562;44.330;23.802;2023-07-02T14:33:05;4.90;;;2.40;;
55674;SDS011;41562;44.330;23.802;2023-07-02T14:35:33;5.55;;;2.38;;
55674;SDS011;41562;44.330;23.802;2023-07-02T14:38:01;4.60;;;2.70;;
55674;SDS011;41562;44.330;23.802;2023-07-02T14:40:33;5.38;;;2.90;;
55674;SDS011;41562;44.330;23.802;2023-07-02T14:43:01;6.13;;;2.90;;
55674;SDS011;41562;44.330;23.802;2023-07-02T14:45:29;3.17;;;2.28;;
55674;SDS011;41562;44.330;23.802;2023-07-02T14:47:56;4.90;;;3.05;;
55674;SDS011;41562;44.330;23.802;2023-07-02T14:50:26;3.53;;;2.72;;
55674;SDS011;41562;44.330;23.802;2023-07-02T14:52:55;6.72;;;3.83;;
55674;SDS011;41562;44.330;23.802;2023-07-02T14:55:23;5.63;;;3.88;;
55674;SDS011;41562;44.330;23.802;2023-07-02T14:57:51;5.43;;;3.40;;
55674;SDS011;41562;44.330;23.802;2023-07-02T15:00:21;7.88;;;4.43;;
55674;SDS011;41562;44.330;23.802;2023-07-02T15:02:48;7.10;;;4.43;;
55674;SDS011;41562;44.330;23.802;2023-07-02T15:05:17;8.13;;;4.03;;
55674;SDS011;41562;44.330;23.802;2023-07-02T15:07:44;7.10;;;4.05;;
55674;SDS011;41562;44.330;23.802;2023-07-02T15:10:11;8.00;;;4.28;;
55674;SDS011;41562;44.330;23.802;2023-07-02T15:12:39;10.38;;;5.05;;
55674;SDS011;41562;44.330;23.802;2023-07-02T15:15:07;9.70;;;4.93;;
55674;SDS011;41562;44.330;23.802;2023-07-02T15:17:36;7.85;;;4.35;;
55674;SDS011;41562;44.330;23.802;2023-07-02T15:20:04;8.73;;;5.65;;
55674;SDS011;41562;44.330;23.802;2023-07-02T15:22:32;6.72;;;4.18;;
55674;SDS011;41562;44.330;23.802;2023-07-02T15:25:00;8.38;;;5.00;;
55674;SDS011;41562;44.330;23.802;2023-07-02T15:27:28;9.77;;;4.78;;
55674;SDS011;41562;44.330;23.802;2023-07-02T15:29:56;8.55;;;4.68;;
55674;SDS011;41562;44.330;23.802;2023-07-02T15:32:39;9.32;;;5.60;;
55674;SDS011;41562;44.330;23.802;2023-07-02T15:35:07;5.13;;;4.03;;
55674;SDS011;41562;44.330;23.802;2023-07-02T15:37:34;9.50;;;5.43;;
55674;SDS011;41562;44.330;23.802;2023-07-02T15:40:02;9.23;;;4.68;;
55674;SDS011;41562;44.330;23.802;2023-07-02T15:42:31;9.20;;;3.80;;
55674;SDS011;41562;44.330;23.802;2023-07-02T15:45:06;6.43;;;4.13;;
55674;SDS011;41562;44.330;23.802;2023-07-02T15:47:34;9.87;;;2.67;;
55674;SDS011;41562;44.330;23.802;2023-07-02T15:50:03;5.80;;;3.30;;
55674;SDS011;41562;44.330;23.802;2023-07-02T15:52:31;7.40;;;2.75;;
55674;SDS011;41562;44.330;23.802;2023-07-02T15:55:01;3.88;;;2.60;;
55674;SDS011;41562;44.330;23.802;2023-07-02T15:57:29;5.63;;;3.45;;
55674;SDS011;41562;44.330;23.802;2023-07-02T15:59:56;6.75;;;3.17;;
55674;SDS011;41562;44.330;23.802;2023-07-02T16:02:24;5.75;;;2.47;;
55674;SDS011;41562;44.330;23.802;2023-07-02T16:04:52;6.18;;;3.42;;
55674;SDS011;41562;44.330;23.802;2023-07-02T16:07:20;8.07;;;3.17;;
55674;SDS011;41562;44.330;23.802;2023-07-02T16:09:48;5.15;;;2.80;;
55674;SDS011;41562;44.330;23.802;2023-07-02T16:12:17;7.03;;;3.38;;
55674;SDS011;41562;44.330;23.802;2023-07-02T16:14:44;5.07;;;2.55;;
55674;SDS011;41562;44.330;23.802;2023-07-02T16:17:23;6.32;;;2.28;;
55674;SDS011;41562;44.330;23.802;2023-07-02T16:19:50;7.88;;;3.10;;